Wah Cantt Weather



Wah Cantt's Current Weather

Temprature 16.17o few clouds

few clouds

Rain: 0 %

Min Temprature15o
Max Temprature17.22o
Humidity82
Wind Speed2.6 m/h
Sun Rise05:45:39
Sun Set18:35:08
Current Time: 09-Apr-2020 02:52:25
Lat/Lon: 33.79, 72.73




Wah Cantt's Geo Location



Wah Cantt's Weather Forecast

Time Overall Temp Min Temp Max Temp Humidity Wind Speed Rain
09-Apr-2020 (Thu)
05:00:00 few clouds 15.380 15.380 16.630 47 1.54 m/h 0 %
08:00:00 overcast clouds 19.490 19.490 20.430 42 0.88 m/h 0 %
11:00:00 overcast clouds 24.610 24.610 25.230 32 0.33 m/h 0 %
14:00:00 overcast clouds 27.630 27.630 27.940 25 2.55 m/h 0 %
17:00:00 overcast clouds 27.440 27.440 27.440 31 2.8 m/h 0 %
20:00:00 light rain 18.380 18.380 18.380 62 5.22 m/h 281 %
23:00:00 light rain 16.630 16.630 16.630 64 4.01 m/h 86 %
10-Apr-2020 (Fri)
02:00:00 light rain 15.490 15.490 15.490 67 3.01 m/h 45 %
05:00:00 scattered clouds 15.150 15.150 15.150 65 2.86 m/h 0 %
08:00:00 few clouds 18.930 18.930 18.930 53 3.13 m/h 0 %
11:00:00 scattered clouds 24.630 24.630 24.630 39 3.97 m/h 0 %
14:00:00 scattered clouds 27.670 27.670 27.670 34 3.76 m/h 0 %
17:00:00 scattered clouds 26.750 26.750 26.750 38 3.5 m/h 0 %
20:00:00 clear sky 21.520 21.520 21.520 47 1.93 m/h 0 %
23:00:00 clear sky 20.450 20.450 20.450 44 2.4 m/h 0 %
11-Apr-2020 (Sat)
02:00:00 overcast clouds 19.360 19.360 19.360 45 2.1 m/h 0 %
05:00:00 overcast clouds 18.220 18.220 18.220 43 1.95 m/h 0 %
08:00:00 broken clouds 21.790 21.790 21.790 39 1.81 m/h 0 %
11:00:00 broken clouds 26.810 26.810 26.810 29 2.54 m/h 0 %
14:00:00 broken clouds 30.510 30.510 30.510 22 2.23 m/h 0 %
17:00:00 broken clouds 28.980 28.980 28.980 30 2.62 m/h 0 %
20:00:00 scattered clouds 23.250 23.250 23.250 38 1.64 m/h 0 %
23:00:00 broken clouds 21.680 21.680 21.680 41 1.43 m/h 0 %
12-Apr-2020 (Sun)
02:00:00 overcast clouds 20.770 20.770 20.770 42 1.69 m/h 0 %
05:00:00 broken clouds 19.380 19.380 19.380 42 1.76 m/h 0 %
08:00:00 few clouds 23.310 23.310 23.310 38 1.67 m/h 0 %
11:00:00 clear sky 28.640 28.640 28.640 26 2.7 m/h 0 %
14:00:00 scattered clouds 31.690 31.690 31.690 21 2.76 m/h 0 %
17:00:00 broken clouds 30.640 30.640 30.640 28 1.84 m/h 0 %
20:00:00 overcast clouds 24.390 24.390 24.390 35 1.14 m/h 0 %
23:00:00 overcast clouds 22.750 22.750 22.750 38 1.5 m/h 0 %
13-Apr-2020 (Mon)
02:00:00 overcast clouds 21.670 21.670 21.670 39 1.57 m/h 0 %
05:00:00 overcast clouds 20.850 20.850 20.850 41 1.65 m/h 0 %
08:00:00 overcast clouds 24.740 24.740 24.740 38 1.38 m/h 0 %
11:00:00 overcast clouds 30.220 30.220 30.220 27 1.74 m/h 0 %
14:00:00 few clouds 33.210 33.210 33.210 20 1.57 m/h 0 %
17:00:00 clear sky 32.930 32.930 32.930 23 0.7 m/h 0 %
20:00:00 scattered clouds 26.650 26.650 26.650 28 2.49 m/h 0 %
23:00:00 scattered clouds 24.860 24.860 24.860 32 2.74 m/h 0 %
14-Apr-2020 (Tue)
02:00:00 broken clouds 23.100 23.100 23.100 36 2.1 m/h 0 %

Famous Cities (61)